createdAt,value
2023-04-09T00:02:03.907Z,0.48
2023-04-09T00:04:30.463Z,0.51
2023-04-09T00:06:56.959Z,0.47
2023-04-09T00:09:23.448Z,0.48
2023-04-09T00:11:49.897Z,0.46
2023-04-09T00:14:16.312Z,0.41
2023-04-09T00:16:42.797Z,0.37
2023-04-09T00:19:09.321Z,0.30
2023-04-09T00:21:36.050Z,0.23
2023-04-09T00:24:02.470Z,0.23
2023-04-09T00:26:28.858Z,0.23
2023-04-09T00:28:55.549Z,0.22
2023-04-09T00:31:22.112Z,0.22
2023-04-09T00:33:49.895Z,0.20
2023-04-09T00:36:16.648Z,0.21
2023-04-09T00:38:51.056Z,0.21
2023-04-09T00:41:17.985Z,0.17
2023-04-09T00:43:44.446Z,0.13
2023-04-09T00:46:12.029Z,0.11
2023-04-09T00:48:38.913Z,0.09
2023-04-09T00:51:05.849Z,0.08
2023-04-09T00:53:32.291Z,0.12
2023-04-09T00:55:58.678Z,0.15
2023-04-09T00:58:25.315Z,0.22
2023-04-09T01:00:51.817Z,0.23
2023-04-09T01:03:18.415Z,0.29
2023-04-09T01:06:07.681Z,0.36
2023-04-09T01:09:05.306Z,0.35
2023-04-09T01:11:39.154Z,0.48
2023-04-09T01:14:19.078Z,0.50
2023-04-09T01:16:48.017Z,0.55
2023-04-09T01:19:32.768Z,0.63
2023-04-09T01:22:00.428Z,0.74
2023-04-09T01:24:47.329Z,0.73
2023-04-09T01:27:14.742Z,0.74
2023-04-09T01:29:52.952Z,0.79
2023-04-09T01:32:20.688Z,0.81
2023-04-09T01:34:47.955Z,0.81
2023-04-09T01:37:15.397Z,0.70
2023-04-09T01:39:42.162Z,0.72
2023-04-09T01:42:11.238Z,0.79
2023-04-09T01:44:41.788Z,0.83
2023-04-09T01:47:10.166Z,0.82
2023-04-09T01:49:39.123Z,0.77
2023-04-09T01:52:06.131Z,0.84
2023-04-09T01:54:33.016Z,0.81
2023-04-09T01:56:59.510Z,0.63
2023-04-09T01:59:26.279Z,0.60
2023-04-09T02:02:01.877Z,0.65
2023-04-09T02:04:33.731Z,0.56
2023-04-09T02:07:07.054Z,0.48
2023-04-09T02:09:36.675Z,0.46
2023-04-09T02:12:04.533Z,0.53
2023-04-09T02:14:33.013Z,0.45
2023-04-09T02:17:00.543Z,0.38
2023-04-09T02:19:46.920Z,0.38
2023-04-09T02:22:14.423Z,0.34
2023-04-09T02:24:41.513Z,0.32
2023-04-09T02:27:08.195Z,0.31
2023-04-09T02:29:35.679Z,0.29
2023-04-09T02:32:04.368Z,0.30
2023-04-09T02:34:31.116Z,0.26
2023-04-09T02:36:58.660Z,0.29
2023-04-09T02:39:28.784Z,0.29
2023-04-09T02:41:56.257Z,0.30
2023-04-09T02:44:22.779Z,0.19
2023-04-09T02:46:51.424Z,0.12
2023-04-09T02:49:18.039Z,0.11
2023-04-09T02:51:44.478Z,0.06
2023-04-09T02:54:11.207Z,0.06
2023-04-09T02:56:38.212Z,-0.09
2023-04-09T02:59:04.585Z,-0.16
2023-04-09T03:01:31.101Z,-0.13
2023-04-09T03:03:57.692Z,-0.14
2023-04-09T03:06:24.263Z,-0.14
2023-04-09T03:08:50.872Z,-0.17
2023-04-09T03:11:17.492Z,-0.21
2023-04-09T03:13:43.928Z,-0.20
2023-04-09T03:16:10.566Z,-0.19
2023-04-09T03:18:38.023Z,-0.16
2023-04-09T03:21:08.639Z,-0.17
2023-04-09T03:23:35.350Z,-0.10
2023-04-09T03:26:05.942Z,-0.13
2023-04-09T03:28:32.377Z,-0.11
2023-04-09T03:30:58.823Z,-0.08
2023-04-09T03:33:28.125Z,-0.07
2023-04-09T03:35:54.581Z,-0.04
2023-04-09T03:38:21.202Z,-0.13
2023-04-09T03:40:47.827Z,-0.14
2023-04-09T03:43:14.360Z,0.06
2023-04-09T03:45:41.848Z,0.15
2023-04-09T03:48:08.251Z,0.15
2023-04-09T03:50:41.920Z,0.15
2023-04-09T03:53:08.513Z,0.17
2023-04-09T03:55:37.576Z,0.29
2023-04-09T03:58:04.026Z,0.31
2023-04-09T04:00:30.581Z,0.46
2023-04-09T04:02:57.196Z,0.42
2023-04-09T04:05:25.322Z,0.39
2023-04-09T04:07:51.914Z,0.46
2023-04-09T04:10:18.331Z,0.51
2023-04-09T04:12:44.819Z,0.55
2023-04-09T04:15:11.599Z,0.62
2023-04-09T04:17:38.009Z,0.64
2023-04-09T04:20:06.181Z,0.68
2023-04-09T04:22:34.151Z,0.74
2023-04-09T04:25:00.570Z,0.66
2023-04-09T04:27:26.957Z,0.70
2023-04-09T04:29:53.416Z,0.77
2023-04-09T04:32:19.813Z,0.84
2023-04-09T04:34:49.987Z,0.92
2023-04-09T04:37:16.620Z,1.03
2023-04-09T04:39:43.082Z,1.01
2023-04-09T04:42:09.652Z,1.10
2023-04-09T04:44:36.069Z,1.09
2023-04-09T04:47:02.506Z,0.89
2023-04-09T04:49:30.345Z,0.90
2023-04-09T04:51:56.941Z,1.01
2023-04-09T04:54:23.355Z,1.06
2023-04-09T04:56:49.784Z,1.12
2023-04-09T04:59:16.220Z,1.26
2023-04-09T05:01:42.859Z,1.16
2023-04-09T05:04:09.380Z,1.29
2023-04-09T05:06:35.816Z,1.46
2023-04-09T05:09:02.331Z,1.33
2023-04-09T05:11:29.038Z,1.34
2023-04-09T05:13:55.449Z,1.42
2023-04-09T05:16:22.079Z,1.46
2023-04-09T05:18:48.539Z,1.65
2023-04-09T05:21:14.943Z,1.69
2023-04-09T05:23:41.460Z,1.75
2023-04-09T05:26:08.262Z,2.04
2023-04-09T05:28:35.008Z,2.06
2023-04-09T05:31:01.713Z,2.51
2023-04-09T05:33:28.565Z,2.99
2023-04-09T05:35:55.492Z,3.47
2023-04-09T05:38:22.256Z,3.99
2023-04-09T05:40:49.149Z,4.40
2023-04-09T05:43:15.876Z,4.26
2023-04-09T05:45:42.466Z,4.86
2023-04-09T05:48:11.855Z,5.36
2023-04-09T05:50:47.568Z,6.16
2023-04-09T05:53:20.872Z,5.57
2023-04-09T05:55:49.199Z,5.95
2023-04-09T05:58:21.818Z,6.82
2023-04-09T06:00:48.257Z,7.08
2023-04-09T06:03:14.901Z,7.56
2023-04-09T06:05:41.482Z,8.51
2023-04-09T06:08:07.861Z,9.46
2023-04-09T06:10:34.873Z,10.47
2023-04-09T06:13:03.490Z,9.98
2023-04-09T06:15:30.053Z,10.67
2023-04-09T06:17:58.915Z,10.89
2023-04-09T06:20:25.848Z,11.44
2023-04-09T06:22:52.316Z,12.28
2023-04-09T06:25:18.806Z,12.24
2023-04-09T06:27:45.208Z,11.47
2023-04-09T06:30:11.889Z,12.19
2023-04-09T06:32:51.064Z,12.26
2023-04-09T06:35:20.585Z,13.51
2023-04-09T06:37:48.044Z,14.95
2023-04-09T06:40:14.768Z,15.59
2023-04-09T06:42:41.305Z,15.94
2023-04-09T06:45:09.228Z,15.78
2023-04-09T06:47:36.266Z,15.81
2023-04-09T06:50:03.947Z,16.70
2023-04-09T06:52:30.504Z,16.84
2023-04-09T06:54:56.924Z,16.80
2023-04-09T06:57:23.444Z,16.25
2023-04-09T06:59:49.870Z,16.09
2023-04-09T07:02:16.836Z,16.64
2023-04-09T07:04:43.313Z,18.22
2023-04-09T07:07:09.931Z,17.46
2023-04-09T07:09:36.561Z,18.50
2023-04-09T07:12:03.027Z,17.79
2023-04-09T07:14:29.868Z,18.45
2023-04-09T07:16:56.247Z,17.52
2023-04-09T07:19:22.621Z,18.44
2023-04-09T07:21:50.930Z,18.87
2023-04-09T07:24:17.327Z,19.01
2023-04-09T07:26:44.062Z,20.02
2023-04-09T07:29:10.652Z,19.23
2023-04-09T07:31:37.122Z,19.55
2023-04-09T07:34:03.770Z,19.05
2023-04-09T07:36:31.800Z,19.29
2023-04-09T07:38:58.390Z,19.87
2023-04-09T07:41:24.902Z,19.50
2023-04-09T07:43:52.048Z,19.03
2023-04-09T07:46:20.679Z,19.02
2023-04-09T07:48:50.126Z,16.76
2023-04-09T07:51:17.170Z,17.11
2023-04-09T07:53:43.978Z,16.95
2023-04-09T07:56:10.765Z,16.14
2023-04-09T07:58:40.597Z,16.57
2023-04-09T08:01:08.773Z,16.64
2023-04-09T08:03:36.721Z,16.83
2023-04-09T08:06:03.690Z,17.34
2023-04-09T08:08:30.957Z,18.00
2023-04-09T08:10:57.433Z,17.26
2023-04-09T08:13:25.298Z,19.17
2023-04-09T08:15:51.740Z,18.36
2023-04-09T08:18:18.604Z,18.15
2023-04-09T08:20:48.064Z,18.32
2023-04-09T08:23:14.536Z,15.59
2023-04-09T08:25:40.983Z,14.84
2023-04-09T08:28:08.334Z,15.25
2023-04-09T08:30:35.030Z,16.43
2023-04-09T08:33:02.188Z,18.99
2023-04-09T08:35:32.464Z,19.00
2023-04-09T08:37:59.634Z,20.41
2023-04-09T08:40:26.203Z,20.01
2023-04-09T08:42:56.818Z,19.27
2023-04-09T08:45:24.159Z,19.33
2023-04-09T08:47:51.437Z,16.64
2023-04-09T08:50:18.120Z,16.23
2023-04-09T08:52:46.955Z,17.53
2023-04-09T08:55:13.521Z,18.62
2023-04-09T08:57:40.580Z,15.76
2023-04-09T09:00:08.139Z,18.98
2023-04-09T09:02:35.733Z,19.45
2023-04-09T09:05:02.886Z,20.24
2023-04-09T09:07:29.770Z,20.88
2023-04-09T09:09:58.759Z,20.04
2023-04-09T09:12:39.349Z,19.38
2023-04-09T09:15:28.647Z,16.05
2023-04-09T09:17:56.928Z,17.79
2023-04-09T09:20:24.089Z,17.88
2023-04-09T09:22:54.631Z,17.49
2023-04-09T09:25:26.150Z,16.27
2023-04-09T09:27:54.497Z,15.68
2023-04-09T09:30:22.541Z,16.03
2023-04-09T09:32:55.585Z,17.04
2023-04-09T09:35:23.354Z,18.30
2023-04-09T09:38:01.675Z,18.05
2023-04-09T09:40:28.829Z,18.25
2023-04-09T09:42:57.970Z,15.01
2023-04-09T09:45:25.671Z,17.07
2023-04-09T09:47:53.585Z,17.69
2023-04-09T09:50:24.177Z,17.45
2023-04-09T09:52:50.896Z,17.61
2023-04-09T09:55:18.221Z,16.38
2023-04-09T09:57:46.002Z,14.87
2023-04-09T10:00:14.906Z,16.75
2023-04-09T10:02:45.098Z,16.25
2023-04-09T10:05:11.829Z,15.20
2023-04-09T10:07:39.136Z,15.79
2023-04-09T10:10:06.742Z,17.08
2023-04-09T10:12:33.944Z,16.69
2023-04-09T10:15:04.652Z,19.93
2023-04-09T10:17:32.325Z,19.56
2023-04-09T10:20:07.172Z,21.03
2023-04-09T10:22:36.400Z,19.40
2023-04-09T10:25:04.513Z,21.04
2023-04-09T10:27:31.181Z,18.78
2023-04-09T10:30:00.039Z,19.67
2023-04-09T10:32:28.348Z,19.11
2023-04-09T10:34:59.504Z,19.63
2023-04-09T10:37:27.275Z,16.54
2023-04-09T10:39:54.127Z,17.35
2023-04-09T10:42:24.787Z,17.54
2023-04-09T10:45:15.095Z,15.34
2023-04-09T10:47:43.357Z,17.00
2023-04-09T10:50:16.674Z,17.58
2023-04-09T10:52:44.446Z,18.51
2023-04-09T10:55:30.665Z,17.93
2023-04-09T10:57:58.324Z,18.41
2023-04-09T11:00:24.835Z,18.12
2023-04-09T11:03:04.568Z,16.33
2023-04-09T11:05:34.223Z,17.68
2023-04-09T11:08:04.690Z,18.36
2023-04-09T11:10:32.608Z,17.55
2023-04-09T11:13:00.434Z,17.61
2023-04-09T11:15:27.350Z,17.94
2023-04-09T11:17:54.214Z,17.98
2023-04-09T11:20:23.405Z,16.10
2023-04-09T11:22:51.619Z,14.64
2023-04-09T11:25:26.444Z,15.33
2023-04-09T11:27:53.477Z,16.46
2023-04-09T11:30:20.282Z,15.77
2023-04-09T11:32:48.073Z,15.37
2023-04-09T11:35:22.398Z,16.72
2023-04-09T11:37:50.082Z,16.66
2023-04-09T11:40:18.331Z,17.03
2023-04-09T11:42:46.427Z,16.59
2023-04-09T11:45:14.337Z,16.65
2023-04-09T11:47:41.875Z,16.80
2023-04-09T11:50:09.835Z,16.74
2023-04-09T11:52:37.015Z,16.55
2023-04-09T11:55:04.939Z,16.08
2023-04-09T11:57:40.053Z,17.19
2023-04-09T12:00:09.161Z,15.07
2023-04-09T12:02:46.598Z,16.49
2023-04-09T12:05:24.687Z,17.63
2023-04-09T12:07:56.199Z,16.87
2023-04-09T12:10:27.444Z,17.62
2023-04-09T12:12:53.823Z,16.27
2023-04-09T12:15:25.452Z,15.78
2023-04-09T12:17:57.182Z,15.38
2023-04-09T12:20:37.304Z,15.84
2023-04-09T12:23:05.182Z,16.02
2023-04-09T12:25:32.612Z,16.68
2023-04-09T12:27:59.452Z,16.10
2023-04-09T12:30:26.198Z,15.82
2023-04-09T12:32:53.644Z,16.50
2023-04-09T12:35:20.930Z,17.12
2023-04-09T12:37:47.451Z,16.37
2023-04-09T12:40:14.135Z,15.79
2023-04-09T12:42:41.850Z,15.95
2023-04-09T12:45:10.134Z,17.23
2023-04-09T12:47:36.715Z,17.53
2023-04-09T12:50:07.734Z,17.69
2023-04-09T12:52:34.778Z,16.95
2023-04-09T12:55:02.213Z,16.95
2023-04-09T12:57:28.956Z,18.28
2023-04-09T12:59:55.425Z,18.61
2023-04-09T13:02:22.457Z,17.45
2023-04-09T13:04:49.260Z,18.62
2023-04-09T13:07:17.471Z,18.62
2023-04-09T13:09:45.274Z,17.24
2023-04-09T13:12:12.601Z,16.34
2023-04-09T13:14:39.974Z,15.60
2023-04-09T13:17:06.692Z,16.19
2023-04-09T13:19:33.401Z,15.87
2023-04-09T13:22:00.527Z,14.93
2023-04-09T13:24:27.343Z,15.62
2023-04-09T13:26:54.089Z,16.28
2023-04-09T13:29:20.482Z,16.60
2023-04-09T13:31:46.885Z,16.59
2023-04-09T13:34:13.366Z,16.77
2023-04-09T13:36:43.818Z,16.63
2023-04-09T13:39:10.348Z,16.96
2023-04-09T13:41:37.675Z,16.21
2023-04-09T13:44:05.077Z,16.73
2023-04-09T13:46:38.685Z,17.00
2023-04-09T13:49:07.464Z,17.47
2023-04-09T13:51:34.171Z,17.64
2023-04-09T13:54:00.591Z,17.59
2023-04-09T13:56:27.519Z,17.22
2023-04-09T13:58:55.386Z,17.09
2023-04-09T14:01:22.315Z,17.17
2023-04-09T14:03:49.890Z,16.94
2023-04-09T14:06:16.339Z,17.12
2023-04-09T14:08:42.784Z,16.79
2023-04-09T14:11:13.987Z,16.60
2023-04-09T14:13:41.662Z,16.37
2023-04-09T14:16:08.652Z,16.45
2023-04-09T14:18:36.341Z,15.95
2023-04-09T14:21:02.847Z,15.77
2023-04-09T14:23:29.425Z,15.56
2023-04-09T14:25:55.999Z,15.58
2023-04-09T14:28:22.580Z,15.39
2023-04-09T14:30:49.013Z,15.42
2023-04-09T14:33:16.511Z,15.29
2023-04-09T14:35:43.118Z,15.72
2023-04-09T14:38:09.952Z,14.62
2023-04-09T14:40:36.682Z,15.38
2023-04-09T14:43:03.574Z,15.36
2023-04-09T14:45:30.941Z,15.01
2023-04-09T14:47:57.693Z,15.49
2023-04-09T14:50:24.184Z,15.77
2023-04-09T14:52:50.764Z,14.95
2023-04-09T14:55:17.334Z,15.43
2023-04-09T14:57:44.015Z,15.62
2023-04-09T15:00:12.108Z,14.88
2023-04-09T15:02:39.142Z,15.19
2023-04-09T15:05:06.237Z,15.34
2023-04-09T15:07:33.877Z,15.10
2023-04-09T15:10:00.382Z,14.83
2023-04-09T15:12:28.248Z,15.24
2023-04-09T15:14:56.536Z,15.27
2023-04-09T15:17:25.253Z,15.60
2023-04-09T15:19:52.635Z,15.41
2023-04-09T15:22:19.458Z,14.38
2023-04-09T15:24:45.960Z,14.28
2023-04-09T15:27:12.350Z,14.48
2023-04-09T15:29:39.231Z,14.68
2023-04-09T15:32:06.790Z,14.97
2023-04-09T15:34:33.296Z,14.61
2023-04-09T15:36:59.719Z,14.83
2023-04-09T15:39:28.361Z,15.25
2023-04-09T15:41:57.569Z,15.22
2023-04-09T15:44:24.956Z,15.11
2023-04-09T15:46:53.321Z,15.34
2023-04-09T15:49:19.816Z,13.98
2023-04-09T15:51:46.347Z,13.82
2023-04-09T15:54:12.810Z,14.12
2023-04-09T15:56:40.420Z,14.06
2023-04-09T15:59:08.349Z,14.05
2023-04-09T16:01:36.093Z,13.93
2023-04-09T16:04:04.922Z,13.89
2023-04-09T16:06:31.807Z,13.84
2023-04-09T16:08:58.457Z,13.73
2023-04-09T16:11:24.906Z,13.74
2023-04-09T16:13:52.346Z,13.47
2023-04-09T16:16:19.042Z,13.36
2023-04-09T16:18:46.605Z,13.37
2023-04-09T16:21:13.099Z,13.38
2023-04-09T16:23:39.900Z,13.19
2023-04-09T16:26:07.010Z,13.08
2023-04-09T16:28:33.594Z,13.32
2023-04-09T16:30:59.987Z,13.45
2023-04-09T16:33:27.664Z,13.45
2023-04-09T16:35:54.094Z,13.47
2023-04-09T16:38:20.713Z,13.58
2023-04-09T16:40:47.120Z,13.61
2023-04-09T16:43:13.857Z,13.52
2023-04-09T16:45:40.416Z,13.54
2023-04-09T16:48:12.024Z,13.31
2023-04-09T16:50:39.815Z,13.50
2023-04-09T16:53:06.567Z,13.53
2023-04-09T16:55:34.333Z,13.52
2023-04-09T16:58:01.034Z,13.33
2023-04-09T17:00:27.624Z,13.31
2023-04-09T17:02:55.668Z,13.22
2023-04-09T17:05:22.454Z,13.35
2023-04-09T17:07:49.161Z,13.39
2023-04-09T17:10:15.807Z,13.28
2023-04-09T17:12:42.730Z,13.00
2023-04-09T17:15:10.135Z,13.11
2023-04-09T17:17:37.363Z,13.05
2023-04-09T17:20:05.713Z,13.05
2023-04-09T17:22:32.293Z,12.93
2023-04-09T17:24:58.768Z,12.86
2023-04-09T17:27:25.349Z,12.73
2023-04-09T17:29:51.821Z,12.71
2023-04-09T17:32:18.763Z,12.50
2023-04-09T17:34:49.443Z,12.40
2023-04-09T17:37:16.216Z,12.35
2023-04-09T17:39:43.028Z,12.19
2023-04-09T17:42:11.681Z,12.06
2023-04-09T17:44:38.696Z,12.05
2023-04-09T17:47:06.810Z,12.01
2023-04-09T17:49:33.382Z,11.88
2023-04-09T17:52:00.195Z,11.77
2023-04-09T17:54:26.609Z,11.65
2023-04-09T17:56:53.047Z,11.59
2023-04-09T17:59:19.534Z,11.52
2023-04-09T18:01:46.159Z,11.49
2023-04-09T18:04:12.900Z,11.45
2023-04-09T18:06:40.869Z,11.37
2023-04-09T18:09:07.620Z,11.21
2023-04-09T18:11:34.108Z,11.09
2023-04-09T18:14:00.850Z,11.14
2023-04-09T18:16:28.300Z,10.94
2023-04-09T18:18:55.011Z,10.87
2023-04-09T18:21:22.042Z,10.87
2023-04-09T18:23:48.684Z,10.92
2023-04-09T18:26:15.816Z,10.86
2023-04-09T18:28:42.480Z,10.71
2023-04-09T18:31:11.204Z,10.58
2023-04-09T18:33:37.910Z,10.54
2023-04-09T18:36:04.550Z,10.44
2023-04-09T18:38:31.561Z,10.53
2023-04-09T18:40:58.188Z,10.55
2023-04-09T18:43:25.891Z,10.55
2023-04-09T18:45:52.493Z,10.57
2023-04-09T18:48:19.256Z,10.51
2023-04-09T18:50:46.111Z,10.40
2023-04-09T18:53:13.735Z,10.32
2023-04-09T18:55:40.276Z,10.26
2023-04-09T18:58:12.877Z,10.18
2023-04-09T19:00:39.588Z,10.17
2023-04-09T19:03:06.161Z,10.22
2023-04-09T19:05:33.405Z,10.18
2023-04-09T19:08:01.349Z,10.21
2023-04-09T19:10:28.564Z,10.05
2023-04-09T19:12:55.533Z,9.84
2023-04-09T19:15:26.246Z,9.68
2023-04-09T19:17:52.934Z,9.40
2023-04-09T19:20:19.667Z,9.17
2023-04-09T19:22:47.980Z,9.32
2023-04-09T19:25:15.644Z,9.28
2023-04-09T19:27:42.013Z,9.21
2023-04-09T19:30:09.460Z,9.15
2023-04-09T19:32:36.714Z,9.08
2023-04-09T19:35:03.320Z,8.80
2023-04-09T19:37:30.437Z,8.74
2023-04-09T19:39:58.333Z,8.68
2023-04-09T19:42:25.333Z,8.60
2023-04-09T19:44:51.953Z,8.46
2023-04-09T19:47:18.406Z,8.60
2023-04-09T19:49:44.992Z,8.67
2023-04-09T19:52:11.569Z,8.44
2023-04-09T19:54:38.002Z,8.33
2023-04-09T19:57:04.594Z,8.10
2023-04-09T19:59:36.138Z,8.05
2023-04-09T20:02:03.210Z,8.10
2023-04-09T20:04:31.045Z,7.99
2023-04-09T20:06:57.678Z,7.97
2023-04-09T20:09:26.329Z,7.85
2023-04-09T20:11:55.755Z,7.64
2023-04-09T20:14:22.171Z,7.57
2023-04-09T20:16:49.593Z,7.50
2023-04-09T20:19:16.178Z,7.61
2023-04-09T20:21:43.669Z,7.72
2023-04-09T20:24:10.565Z,7.65
2023-04-09T20:26:37.098Z,7.65
2023-04-09T20:29:03.528Z,7.60
2023-04-09T20:31:30.905Z,7.62
2023-04-09T20:33:57.447Z,7.71
2023-04-09T20:36:24.991Z,7.73
2023-04-09T20:38:51.830Z,7.76
2023-04-09T20:41:18.427Z,7.68
2023-04-09T20:43:44.854Z,7.64
2023-04-09T20:46:11.908Z,7.52
2023-04-09T20:48:39.498Z,7.41
2023-04-09T20:51:12.772Z,7.33
2023-04-09T20:53:39.205Z,7.30
2023-04-09T20:56:06.217Z,7.36
2023-04-09T20:58:33.597Z,7.32
2023-04-09T21:01:05.189Z,7.24
2023-04-09T21:03:32.384Z,7.21
2023-04-09T21:05:58.906Z,7.28
2023-04-09T21:08:25.387Z,7.26
2023-04-09T21:10:51.737Z,7.28
2023-04-09T21:13:18.205Z,7.31
2023-04-09T21:15:44.659Z,7.32
2023-04-09T21:18:11.143Z,7.26
2023-04-09T21:20:42.618Z,7.31
2023-04-09T21:23:10.329Z,7.37
2023-04-09T21:25:38.167Z,7.44
2023-04-09T21:28:06.102Z,7.44
2023-04-09T21:30:34.451Z,7.48
2023-04-09T21:33:06.014Z,7.52
2023-04-09T21:35:32.877Z,7.55
2023-04-09T21:37:59.439Z,7.62
2023-04-09T21:40:25.885Z,7.68
2023-04-09T21:42:52.395Z,7.68
2023-04-09T21:45:19.053Z,7.72
2023-04-09T21:47:46.814Z,7.74
2023-04-09T21:50:13.755Z,7.72
2023-04-09T21:52:40.492Z,7.72
2023-04-09T21:55:07.598Z,7.68
2023-04-09T21:57:34.119Z,7.66
2023-04-09T22:00:00.727Z,7.63
2023-04-09T22:02:28.613Z,7.51
2023-04-09T22:04:55.623Z,7.40
2023-04-09T22:07:22.426Z,7.42
2023-04-09T22:09:48.879Z,7.32
2023-04-09T22:12:15.830Z,7.38
2023-04-09T22:14:42.211Z,7.34
2023-04-09T22:17:08.799Z,7.30
2023-04-09T22:19:35.232Z,7.31
2023-04-09T22:22:01.886Z,7.20
2023-04-09T22:24:30.071Z,7.11
2023-04-09T22:26:58.836Z,6.95
2023-04-09T22:29:26.302Z,6.90
2023-04-09T22:31:52.687Z,6.82
2023-04-09T22:34:21.508Z,6.71
2023-04-09T22:36:48.580Z,6.61
2023-04-09T22:39:15.108Z,6.52
2023-04-09T22:41:41.570Z,6.46
2023-04-09T22:44:09.497Z,6.39
2023-04-09T22:46:36.642Z,6.36
2023-04-09T22:49:05.260Z,6.35
2023-04-09T22:51:34.677Z,6.22
2023-04-09T22:54:02.701Z,6.16
2023-04-09T22:56:31.538Z,6.04
2023-04-09T22:58:57.943Z,5.97
2023-04-09T23:01:24.616Z,5.86
2023-04-09T23:03:51.916Z,5.83
2023-04-09T23:06:18.942Z,5.74
2023-04-09T23:08:45.740Z,5.71
2023-04-09T23:11:12.234Z,5.65
2023-04-09T23:13:38.814Z,5.52
2023-04-09T23:16:11.097Z,5.47
2023-04-09T23:18:37.870Z,5.32
2023-04-09T23:21:11.471Z,5.29
2023-04-09T23:23:38.824Z,5.31
2023-04-09T23:26:06.245Z,5.24
2023-04-09T23:28:34.152Z,5.13
2023-04-09T23:31:01.323Z,5.03
2023-04-09T23:33:29.109Z,4.96
2023-04-09T23:35:55.759Z,4.92
2023-04-09T23:38:23.746Z,4.88
2023-04-09T23:40:50.325Z,4.86
2023-04-09T23:43:16.753Z,4.82
2023-04-09T23:45:46.572Z,4.76
2023-04-09T23:48:13.503Z,4.78
2023-04-09T23:50:45.178Z,4.76
2023-04-09T23:53:11.986Z,4.73
2023-04-09T23:55:40.992Z,4.71
2023-04-09T23:58:08.512Z,4.61
